sensor_id;sensor_type;location;lat;lon;timestamp;P1;durP1;ratioP1;P2;durP2;ratioP2
80136;SDS011;69466;55.948;37.484;2023-12-20T00:00:17;1.85;;;0.90;;
80136;SDS011;69466;55.948;37.484;2023-12-20T00:02:44;1.40;;;0.70;;
80136;SDS011;69466;55.948;37.484;2023-12-20T00:05:13;2.38;;;0.60;;
80136;SDS011;69466;55.948;37.484;2023-12-20T00:07:40;2.22;;;0.70;;
80136;SDS011;69466;55.948;37.484;2023-12-20T00:10:06;2.40;;;0.70;;
80136;SDS011;69466;55.948;37.484;2023-12-20T00:12:33;2.95;;;0.90;;
80136;SDS011;69466;55.948;37.484;2023-12-20T00:14:58;2.95;;;1.38;;
80136;SDS011;69466;55.948;37.484;2023-12-20T00:17:24;2.63;;;0.93;;
80136;SDS011;69466;55.948;37.484;2023-12-20T00:19:50;3.28;;;1.30;;
80136;SDS011;69466;55.948;37.484;2023-12-20T00:22:16;3.30;;;1.30;;
80136;SDS011;69466;55.948;37.484;2023-12-20T00:24:42;3.58;;;1.60;;
80136;SDS011;69466;55.948;37.484;2023-12-20T00:27:08;3.22;;;1.30;;
80136;SDS011;69466;55.948;37.484;2023-12-20T00:29:34;4.25;;;1.20;;
80136;SDS011;69466;55.948;37.484;2023-12-20T00:32:00;3.97;;;1.17;;
80136;SDS011;69466;55.948;37.484;2023-12-20T00:34:26;3.25;;;1.40;;
80136;SDS011;69466;55.948;37.484;2023-12-20T00:36:52;4.00;;;1.50;;
80136;SDS011;69466;55.948;37.484;2023-12-20T00:39:20;3.28;;;1.05;;
80136;SDS011;69466;55.948;37.484;2023-12-20T00:41:46;2.60;;;0.80;;
80136;SDS011;69466;55.948;37.484;2023-12-20T00:44:12;3.00;;;0.95;;
80136;SDS011;69466;55.948;37.484;2023-12-20T00:46:38;3.20;;;0.93;;
80136;SDS011;69466;55.948;37.484;2023-12-20T00:49:05;3.78;;;1.35;;
80136;SDS011;69466;55.948;37.484;2023-12-20T00:51:31;2.15;;;0.70;;
80136;SDS011;69466;55.948;37.484;2023-12-20T00:53:57;1.70;;;0.60;;
80136;SDS011;69466;55.948;37.484;2023-12-20T00:56:23;2.92;;;1.00;;
80136;SDS011;69466;55.948;37.484;2023-12-20T00:58:49;2.70;;;0.80;;
80136;SDS011;69466;55.948;37.484;2023-12-20T01:01:15;4.50;;;1.10;;
80136;SDS011;69466;55.948;37.484;2023-12-20T01:03:41;3.33;;;1.10;;
80136;SDS011;69466;55.948;37.484;2023-12-20T01:06:07;2.60;;;1.00;;
80136;SDS011;69466;55.948;37.484;2023-12-20T01:08:33;3.50;;;1.00;;
80136;SDS011;69466;55.948;37.484;2023-12-20T01:11:03;4.03;;;0.82;;
80136;SDS011;69466;55.948;37.484;2023-12-20T01:13:29;3.03;;;0.90;;
80136;SDS011;69466;55.948;37.484;2023-12-20T01:15:55;2.35;;;0.80;;
80136;SDS011;69466;55.948;37.484;2023-12-20T01:18:21;3.35;;;1.00;;
80136;SDS011;69466;55.948;37.484;2023-12-20T01:20:48;4.15;;;0.80;;
80136;SDS011;69466;55.948;37.484;2023-12-20T01:23:14;2.20;;;0.85;;
80136;SDS011;69466;55.948;37.484;2023-12-20T01:25:40;3.28;;;0.80;;
80136;SDS011;69466;55.948;37.484;2023-12-20T01:28:06;3.55;;;1.42;;
80136;SDS011;69466;55.948;37.484;2023-12-20T01:30:31;3.72;;;1.15;;
80136;SDS011;69466;55.948;37.484;2023-12-20T01:32:59;3.40;;;1.10;;
80136;SDS011;69466;55.948;37.484;2023-12-20T01:35:26;4.20;;;1.20;;
80136;SDS011;69466;55.948;37.484;2023-12-20T01:37:51;6.53;;;2.22;;
80136;SDS011;69466;55.948;37.484;2023-12-20T01:40:18;4.30;;;1.40;;
80136;SDS011;69466;55.948;37.484;2023-12-20T01:42:44;2.95;;;1.27;;
80136;SDS011;69466;55.948;37.484;2023-12-20T01:45:11;3.28;;;1.73;;
80136;SDS011;69466;55.948;37.484;2023-12-20T01:47:36;5.38;;;1.60;;
80136;SDS011;69466;55.948;37.484;2023-12-20T01:50:03;3.47;;;1.50;;
80136;SDS011;69466;55.948;37.484;2023-12-20T01:52:30;4.57;;;1.40;;
80136;SDS011;69466;55.948;37.484;2023-12-20T01:54:56;3.38;;;1.42;;
80136;SDS011;69466;55.948;37.484;2023-12-20T01:57:29;4.43;;;1.40;;
80136;SDS011;69466;55.948;37.484;2023-12-20T01:59:56;3.25;;;1.33;;
80136;SDS011;69466;55.948;37.484;2023-12-20T02:02:22;10.05;;;2.17;;
80136;SDS011;69466;55.948;37.484;2023-12-20T02:04:48;3.00;;;1.30;;
80136;SDS011;69466;55.948;37.484;2023-12-20T02:07:16;3.38;;;1.38;;
80136;SDS011;69466;55.948;37.484;2023-12-20T02:09:43;4.93;;;1.42;;
80136;SDS011;69466;55.948;37.484;2023-12-20T02:12:09;5.90;;;1.73;;
80136;SDS011;69466;55.948;37.484;2023-12-20T02:14:36;3.13;;;1.45;;
80136;SDS011;69466;55.948;37.484;2023-12-20T02:17:02;5.88;;;1.98;;
80136;SDS011;69466;55.948;37.484;2023-12-20T02:19:28;3.70;;;1.60;;
80136;SDS011;69466;55.948;37.484;2023-12-20T02:22:10;5.18;;;1.77;;
80136;SDS011;69466;55.948;37.484;2023-12-20T02:24:37;3.53;;;1.58;;
80136;SDS011;69466;55.948;37.484;2023-12-20T02:27:04;3.53;;;1.60;;
80136;SDS011;69466;55.948;37.484;2023-12-20T02:29:32;3.92;;;1.70;;
80136;SDS011;69466;55.948;37.484;2023-12-20T02:31:59;4.72;;;1.70;;
80136;SDS011;69466;55.948;37.484;2023-12-20T02:34:25;4.78;;;1.83;;
80136;SDS011;69466;55.948;37.484;2023-12-20T02:36:51;3.50;;;1.60;;
80136;SDS011;69466;55.948;37.484;2023-12-20T02:39:19;3.60;;;1.55;;
80136;SDS011;69466;55.948;37.484;2023-12-20T02:41:46;3.30;;;1.27;;
80136;SDS011;69466;55.948;37.484;2023-12-20T02:44:12;3.95;;;1.52;;
80136;SDS011;69466;55.948;37.484;2023-12-20T02:46:40;5.45;;;1.75;;
80136;SDS011;69466;55.948;37.484;2023-12-20T02:49:06;3.38;;;1.42;;
80136;SDS011;69466;55.948;37.484;2023-12-20T02:51:33;5.35;;;1.60;;
80136;SDS011;69466;55.948;37.484;2023-12-20T02:54:00;6.43;;;2.47;;
80136;SDS011;69466;55.948;37.484;2023-12-20T02:56:29;3.00;;;1.20;;
80136;SDS011;69466;55.948;37.484;2023-12-20T02:58:58;2.88;;;1.45;;
80136;SDS011;69466;55.948;37.484;2023-12-20T03:01:24;4.88;;;1.50;;
80136;SDS011;69466;55.948;37.484;2023-12-20T03:03:50;4.15;;;1.40;;
80136;SDS011;69466;55.948;37.484;2023-12-20T03:06:17;3.72;;;1.30;;
80136;SDS011;69466;55.948;37.484;2023-12-20T03:08:44;3.92;;;1.17;;
80136;SDS011;69466;55.948;37.484;2023-12-20T03:11:12;3.95;;;1.67;;
80136;SDS011;69466;55.948;37.484;2023-12-20T03:13:47;5.00;;;1.52;;
80136;SDS011;69466;55.948;37.484;2023-12-20T03:16:13;4.15;;;1.60;;
80136;SDS011;69466;55.948;37.484;2023-12-20T03:18:39;3.45;;;1.40;;
80136;SDS011;69466;55.948;37.484;2023-12-20T03:21:05;5.82;;;2.15;;
80136;SDS011;69466;55.948;37.484;2023-12-20T03:23:31;4.53;;;1.70;;
80136;SDS011;69466;55.948;37.484;2023-12-20T03:26:00;5.05;;;1.88;;
80136;SDS011;69466;55.948;37.484;2023-12-20T03:28:26;4.57;;;1.90;;
80136;SDS011;69466;55.948;37.484;2023-12-20T03:30:53;5.13;;;1.92;;
80136;SDS011;69466;55.948;37.484;2023-12-20T03:33:19;5.88;;;1.73;;
80136;SDS011;69466;55.948;37.484;2023-12-20T03:35:45;4.28;;;1.63;;
80136;SDS011;69466;55.948;37.484;2023-12-20T03:38:11;4.55;;;2.03;;
80136;SDS011;69466;55.948;37.484;2023-12-20T03:40:37;3.50;;;1.60;;
80136;SDS011;69466;55.948;37.484;2023-12-20T03:43:03;5.05;;;2.28;;
80136;SDS011;69466;55.948;37.484;2023-12-20T03:45:29;7.68;;;1.50;;
80136;SDS011;69466;55.948;37.484;2023-12-20T03:47:59;3.42;;;1.50;;
80136;SDS011;69466;55.948;37.484;2023-12-20T03:50:25;3.58;;;2.00;;
80136;SDS011;69466;55.948;37.484;2023-12-20T03:55:47;4.18;;;1.58;;
80136;SDS011;69466;55.948;37.484;2023-12-20T03:58:13;4.10;;;1.67;;
80136;SDS011;69466;55.948;37.484;2023-12-20T04:00:41;4.78;;;1.77;;
80136;SDS011;69466;55.948;37.484;2023-12-20T04:03:07;4.32;;;1.65;;
80136;SDS011;69466;55.948;37.484;2023-12-20T04:05:33;4.13;;;2.13;;
80136;SDS011;69466;55.948;37.484;2023-12-20T04:08:01;3.55;;;1.70;;
80136;SDS011;69466;55.948;37.484;2023-12-20T04:10:27;5.60;;;2.03;;
80136;SDS011;69466;55.948;37.484;2023-12-20T04:12:53;4.63;;;2.08;;
80136;SDS011;69466;55.948;37.484;2023-12-20T04:15:21;4.85;;;2.10;;
80136;SDS011;69466;55.948;37.484;2023-12-20T04:17:47;4.32;;;2.13;;
80136;SDS011;69466;55.948;37.484;2023-12-20T04:20:13;4.93;;;2.22;;
80136;SDS011;69466;55.948;37.484;2023-12-20T04:22:39;4.05;;;2.10;;
80136;SDS011;69466;55.948;37.484;2023-12-20T04:25:05;4.13;;;2.15;;
80136;SDS011;69466;55.948;37.484;2023-12-20T04:27:31;5.15;;;2.50;;
80136;SDS011;69466;55.948;37.484;2023-12-20T04:29:57;4.88;;;2.13;;
80136;SDS011;69466;55.948;37.484;2023-12-20T04:32:23;6.70;;;2.08;;
80136;SDS011;69466;55.948;37.484;2023-12-20T04:34:49;4.70;;;2.60;;
80136;SDS011;69466;55.948;37.484;2023-12-20T04:37:15;5.88;;;2.40;;
80136;SDS011;69466;55.948;37.484;2023-12-20T04:39:41;5.70;;;2.55;;
80136;SDS011;69466;55.948;37.484;2023-12-20T04:42:07;8.32;;;2.97;;
80136;SDS011;69466;55.948;37.484;2023-12-20T04:44:33;4.80;;;2.30;;
80136;SDS011;69466;55.948;37.484;2023-12-20T04:46:59;6.80;;;3.42;;
80136;SDS011;69466;55.948;37.484;2023-12-20T04:49:28;5.43;;;2.58;;
80136;SDS011;69466;55.948;37.484;2023-12-20T04:51:54;5.75;;;2.45;;
80136;SDS011;69466;55.948;37.484;2023-12-20T04:54:21;6.20;;;2.25;;
80136;SDS011;69466;55.948;37.484;2023-12-20T04:56:47;6.35;;;1.83;;
80136;SDS011;69466;55.948;37.484;2023-12-20T04:59:12;5.85;;;2.30;;
80136;SDS011;69466;55.948;37.484;2023-12-20T05:01:42;5.05;;;2.20;;
80136;SDS011;69466;55.948;37.484;2023-12-20T05:04:08;4.70;;;1.80;;
80136;SDS011;69466;55.948;37.484;2023-12-20T05:06:35;4.50;;;1.77;;
80136;SDS011;69466;55.948;37.484;2023-12-20T05:09:03;4.15;;;1.60;;
80136;SDS011;69466;55.948;37.484;2023-12-20T05:11:32;4.03;;;1.42;;
80136;SDS011;69466;55.948;37.484;2023-12-20T05:13:58;4.13;;;1.60;;
80136;SDS011;69466;55.948;37.484;2023-12-20T05:16:26;2.67;;;1.30;;
80136;SDS011;69466;55.948;37.484;2023-12-20T05:18:55;5.35;;;1.98;;
80136;SDS011;69466;55.948;37.484;2023-12-20T05:21:21;5.20;;;1.90;;
80136;SDS011;69466;55.948;37.484;2023-12-20T05:23:47;5.70;;;1.70;;
80136;SDS011;69466;55.948;37.484;2023-12-20T05:26:13;3.88;;;1.60;;
80136;SDS011;69466;55.948;37.484;2023-12-20T05:28:39;5.38;;;1.85;;
80136;SDS011;69466;55.948;37.484;2023-12-20T05:31:05;5.00;;;1.85;;
80136;SDS011;69466;55.948;37.484;2023-12-20T05:33:32;3.50;;;1.60;;
80136;SDS011;69466;55.948;37.484;2023-12-20T05:35:58;4.50;;;1.50;;
80136;SDS011;69466;55.948;37.484;2023-12-20T05:38:24;5.38;;;1.92;;
80136;SDS011;69466;55.948;37.484;2023-12-20T05:40:50;7.05;;;1.85;;
80136;SDS011;69466;55.948;37.484;2023-12-20T05:43:17;3.95;;;1.15;;
80136;SDS011;69466;55.948;37.484;2023-12-20T05:45:43;5.40;;;1.30;;
80136;SDS011;69466;55.948;37.484;2023-12-20T05:48:09;4.90;;;1.65;;
80136;SDS011;69466;55.948;37.484;2023-12-20T05:50:37;5.28;;;1.80;;
80136;SDS011;69466;55.948;37.484;2023-12-20T05:53:10;3.15;;;1.17;;
80136;SDS011;69466;55.948;37.484;2023-12-20T05:55:36;6.07;;;1.30;;
80136;SDS011;69466;55.948;37.484;2023-12-20T05:58:02;4.00;;;1.80;;
80136;SDS011;69466;55.948;37.484;2023-12-20T06:00:29;3.90;;;1.48;;
80136;SDS011;69466;55.948;37.484;2023-12-20T06:02:55;4.90;;;2.13;;
80136;SDS011;69466;55.948;37.484;2023-12-20T06:05:22;6.68;;;2.05;;
80136;SDS011;69466;55.948;37.484;2023-12-20T06:07:48;4.82;;;2.17;;
80136;SDS011;69466;55.948;37.484;2023-12-20T06:10:17;4.25;;;2.15;;
80136;SDS011;69466;55.948;37.484;2023-12-20T06:12:44;5.60;;;2.70;;
80136;SDS011;69466;55.948;37.484;2023-12-20T06:15:12;6.10;;;2.00;;
80136;SDS011;69466;55.948;37.484;2023-12-20T06:17:39;5.15;;;2.20;;
80136;SDS011;69466;55.948;37.484;2023-12-20T06:20:05;4.97;;;2.50;;
80136;SDS011;69466;55.948;37.484;2023-12-20T06:25:27;5.97;;;2.42;;
80136;SDS011;69466;55.948;37.484;2023-12-20T06:27:54;5.40;;;2.53;;
80136;SDS011;69466;55.948;37.484;2023-12-20T06:30:23;4.68;;;2.65;;
80136;SDS011;69466;55.948;37.484;2023-12-20T06:32:53;5.63;;;2.30;;
80136;SDS011;69466;55.948;37.484;2023-12-20T06:39:02;5.28;;;2.60;;
80136;SDS011;69466;55.948;37.484;2023-12-20T06:41:30;7.32;;;2.55;;
80136;SDS011;69466;55.948;37.484;2023-12-20T06:43:58;7.47;;;2.95;;
80136;SDS011;69466;55.948;37.484;2023-12-20T06:46:24;5.55;;;2.67;;
80136;SDS011;69466;55.948;37.484;2023-12-20T06:52:59;6.45;;;3.10;;
80136;SDS011;69466;55.948;37.484;2023-12-20T06:55:33;7.57;;;3.72;;
80136;SDS011;69466;55.948;37.484;2023-12-20T06:59:08;6.85;;;2.58;;
80136;SDS011;69466;55.948;37.484;2023-12-20T07:01:34;4.68;;;2.45;;
80136;SDS011;69466;55.948;37.484;2023-12-20T07:04:01;7.85;;;2.60;;
80136;SDS011;69466;55.948;37.484;2023-12-20T07:06:31;6.45;;;2.58;;
80136;SDS011;69466;55.948;37.484;2023-12-20T07:12:39;5.68;;;2.60;;
80136;SDS011;69466;55.948;37.484;2023-12-20T07:15:06;9.57;;;3.25;;
80136;SDS011;69466;55.948;37.484;2023-12-20T07:17:33;5.88;;;3.03;;
80136;SDS011;69466;55.948;37.484;2023-12-20T07:20:00;5.28;;;2.72;;
80136;SDS011;69466;55.948;37.484;2023-12-20T07:22:30;5.38;;;3.00;;
80136;SDS011;69466;55.948;37.484;2023-12-20T07:25:00;6.13;;;2.78;;
80136;SDS011;69466;55.948;37.484;2023-12-20T07:27:29;6.53;;;3.17;;
80136;SDS011;69466;55.948;37.484;2023-12-20T07:29:55;6.60;;;2.72;;
80136;SDS011;69466;55.948;37.484;2023-12-20T07:32:29;6.03;;;2.78;;
80136;SDS011;69466;55.948;37.484;2023-12-20T07:34:58;6.90;;;3.00;;
80136;SDS011;69466;55.948;37.484;2023-12-20T07:37:32;6.20;;;3.40;;
80136;SDS011;69466;55.948;37.484;2023-12-20T07:39:58;7.50;;;3.00;;
80136;SDS011;69466;55.948;37.484;2023-12-20T07:42:24;6.95;;;2.97;;
80136;SDS011;69466;55.948;37.484;2023-12-20T07:44:50;6.20;;;3.33;;
80136;SDS011;69466;55.948;37.484;2023-12-20T07:47:17;7.70;;;3.20;;
80136;SDS011;69466;55.948;37.484;2023-12-20T07:49:48;10.70;;;3.33;;
80136;SDS011;69466;55.948;37.484;2023-12-20T07:52:15;5.78;;;3.03;;
80136;SDS011;69466;55.948;37.484;2023-12-20T07:54:41;5.43;;;2.55;;
80136;SDS011;69466;55.948;37.484;2023-12-20T07:57:07;6.18;;;2.30;;
80136;SDS011;69466;55.948;37.484;2023-12-20T07:59:34;4.80;;;2.03;;
80136;SDS011;69466;55.948;37.484;2023-12-20T08:01:59;5.07;;;2.30;;
80136;SDS011;69466;55.948;37.484;2023-12-20T08:04:28;6.10;;;2.72;;
80136;SDS011;69466;55.948;37.484;2023-12-20T08:06:54;5.85;;;3.17;;
80136;SDS011;69466;55.948;37.484;2023-12-20T08:09:20;5.65;;;2.30;;
80136;SDS011;69466;55.948;37.484;2023-12-20T08:11:48;5.75;;;2.33;;
80136;SDS011;69466;55.948;37.484;2023-12-20T08:14:14;6.13;;;3.15;;
80136;SDS011;69466;55.948;37.484;2023-12-20T08:16:41;5.30;;;2.53;;
80136;SDS011;69466;55.948;37.484;2023-12-20T08:19:07;6.72;;;2.10;;
80136;SDS011;69466;55.948;37.484;2023-12-20T08:21:33;5.15;;;2.10;;
80136;SDS011;69466;55.948;37.484;2023-12-20T08:23:59;5.97;;;2.25;;
80136;SDS011;69466;55.948;37.484;2023-12-20T08:26:26;6.82;;;2.63;;
80136;SDS011;69466;55.948;37.484;2023-12-20T08:28:55;5.15;;;2.03;;
80136;SDS011;69466;55.948;37.484;2023-12-20T08:31:21;5.22;;;2.35;;
80136;SDS011;69466;55.948;37.484;2023-12-20T08:33:48;7.57;;;2.50;;
80136;SDS011;69466;55.948;37.484;2023-12-20T08:39:36;6.05;;;2.90;;
80136;SDS011;69466;55.948;37.484;2023-12-20T08:42:06;6.38;;;2.35;;
80136;SDS011;69466;55.948;37.484;2023-12-20T08:44:43;6.13;;;2.45;;
80136;SDS011;69466;55.948;37.484;2023-12-20T08:47:17;6.40;;;3.75;;
80136;SDS011;69466;55.948;37.484;2023-12-20T08:53:37;5.55;;;2.92;;
80136;SDS011;69466;55.948;37.484;2023-12-20T08:56:03;11.32;;;3.55;;
80136;SDS011;69466;55.948;37.484;2023-12-20T08:58:30;5.72;;;2.72;;
80136;SDS011;69466;55.948;37.484;2023-12-20T09:00:56;8.27;;;3.17;;
80136;SDS011;69466;55.948;37.484;2023-12-20T09:03:23;7.38;;;2.72;;
80136;SDS011;69466;55.948;37.484;2023-12-20T09:05:48;5.93;;;3.28;;
80136;SDS011;69466;55.948;37.484;2023-12-20T09:08:14;8.10;;;3.22;;
80136;SDS011;69466;55.948;37.484;2023-12-20T09:13:32;5.35;;;3.20;;
80136;SDS011;69466;55.948;37.484;2023-12-20T09:15:58;5.38;;;3.00;;
80136;SDS011;69466;55.948;37.484;2023-12-20T09:18:25;8.50;;;3.20;;
80136;SDS011;69466;55.948;37.484;2023-12-20T09:23:41;6.00;;;2.70;;
80136;SDS011;69466;55.948;37.484;2023-12-20T09:26:08;5.63;;;3.15;;
80136;SDS011;69466;55.948;37.484;2023-12-20T09:28:36;6.57;;;3.22;;
80136;SDS011;69466;55.948;37.484;2023-12-20T09:31:03;10.18;;;3.67;;
80136;SDS011;69466;55.948;37.484;2023-12-20T09:36:37;6.63;;;2.95;;
80136;SDS011;69466;55.948;37.484;2023-12-20T09:48:17;6.80;;;2.47;;
80136;SDS011;69466;55.948;37.484;2023-12-20T09:50:44;6.00;;;2.28;;
80136;SDS011;69466;55.948;37.484;2023-12-20T09:53:12;5.82;;;2.38;;
80136;SDS011;69466;55.948;37.484;2023-12-20T09:55:58;5.30;;;2.60;;
80136;SDS011;69466;55.948;37.484;2023-12-20T09:58:25;5.18;;;2.53;;
80136;SDS011;69466;55.948;37.484;2023-12-20T10:00:51;3.67;;;1.80;;
80136;SDS011;69466;55.948;37.484;2023-12-20T10:03:21;6.25;;;2.28;;
80136;SDS011;69466;55.948;37.484;2023-12-20T10:05:52;5.22;;;2.10;;
80136;SDS011;69466;55.948;37.484;2023-12-20T10:08:21;4.07;;;2.22;;
80136;SDS011;69466;55.948;37.484;2023-12-20T10:10:48;6.95;;;2.85;;
80136;SDS011;69466;55.948;37.484;2023-12-20T10:13:14;4.32;;;2.10;;
80136;SDS011;69466;55.948;37.484;2023-12-20T10:15:41;5.15;;;3.17;;
80136;SDS011;69466;55.948;37.484;2023-12-20T10:18:07;5.90;;;2.13;;
80136;SDS011;69466;55.948;37.484;2023-12-20T10:20:33;5.95;;;2.70;;
80136;SDS011;69466;55.948;37.484;2023-12-20T10:23:00;4.53;;;2.00;;
80136;SDS011;69466;55.948;37.484;2023-12-20T10:25:28;7.55;;;2.30;;
80136;SDS011;69466;55.948;37.484;2023-12-20T10:28:15;5.28;;;2.22;;
80136;SDS011;69466;55.948;37.484;2023-12-20T10:30:48;5.00;;;2.45;;
80136;SDS011;69466;55.948;37.484;2023-12-20T10:33:22;4.57;;;1.90;;
80136;SDS011;69466;55.948;37.484;2023-12-20T10:35:52;4.57;;;2.10;;
80136;SDS011;69466;55.948;37.484;2023-12-20T10:38:21;4.18;;;2.03;;
80136;SDS011;69466;55.948;37.484;2023-12-20T10:40:47;5.85;;;2.80;;
80136;SDS011;69466;55.948;37.484;2023-12-20T10:43:16;4.63;;;2.10;;
80136;SDS011;69466;55.948;37.484;2023-12-20T10:45:42;5.70;;;2.10;;
80136;SDS011;69466;55.948;37.484;2023-12-20T10:48:10;6.70;;;2.40;;
80136;SDS011;69466;55.948;37.484;2023-12-20T10:50:39;5.15;;;2.25;;
80136;SDS011;69466;55.948;37.484;2023-12-20T10:53:07;5.82;;;2.45;;
80136;SDS011;69466;55.948;37.484;2023-12-20T10:55:33;4.57;;;2.40;;
80136;SDS011;69466;55.948;37.484;2023-12-20T10:58:17;5.43;;;2.00;;
80136;SDS011;69466;55.948;37.484;2023-12-20T11:00:45;4.57;;;2.55;;
80136;SDS011;69466;55.948;37.484;2023-12-20T11:03:16;4.35;;;2.10;;
80136;SDS011;69466;55.948;37.484;2023-12-20T11:05:51;4.20;;;1.75;;
80136;SDS011;69466;55.948;37.484;2023-12-20T11:08:32;4.45;;;1.60;;
80136;SDS011;69466;55.948;37.484;2023-12-20T11:11:31;4.17;;;1.97;;
80136;SDS011;69466;55.948;37.484;2023-12-20T11:14:00;4.95;;;2.55;;
80136;SDS011;69466;55.948;37.484;2023-12-20T11:16:37;4.28;;;2.25;;
80136;SDS011;69466;55.948;37.484;2023-12-20T11:19:09;4.20;;;2.07;;
80136;SDS011;69466;55.948;37.484;2023-12-20T11:21:39;4.60;;;2.25;;
80136;SDS011;69466;55.948;37.484;2023-12-20T11:24:05;3.80;;;1.77;;
80136;SDS011;69466;55.948;37.484;2023-12-20T11:26:35;4.95;;;2.08;;
80136;SDS011;69466;55.948;37.484;2023-12-20T11:32:03;4.13;;;1.90;;
80136;SDS011;69466;55.948;37.484;2023-12-20T11:34:56;5.63;;;2.33;;
80136;SDS011;69466;55.948;37.484;2023-12-20T11:37:31;4.70;;;2.00;;
80136;SDS011;69466;55.948;37.484;2023-12-20T11:40:08;4.55;;;2.33;;
80136;SDS011;69466;55.948;37.484;2023-12-20T11:42:37;8.82;;;2.50;;
80136;SDS011;69466;55.948;37.484;2023-12-20T11:45:08;6.72;;;2.85;;
80136;SDS011;69466;55.948;37.484;2023-12-20T11:47:34;5.00;;;2.70;;
80136;SDS011;69466;55.948;37.484;2023-12-20T11:50:01;5.22;;;2.38;;
80136;SDS011;69466;55.948;37.484;2023-12-20T11:52:30;5.13;;;2.20;;
80136;SDS011;69466;55.948;37.484;2023-12-20T11:54:59;6.30;;;2.42;;
80136;SDS011;69466;55.948;37.484;2023-12-20T11:57:25;5.45;;;2.30;;
80136;SDS011;69466;55.948;37.484;2023-12-20T11:59:54;6.18;;;2.47;;
80136;SDS011;69466;55.948;37.484;2023-12-20T12:02:21;4.90;;;2.10;;
80136;SDS011;69466;55.948;37.484;2023-12-20T12:04:49;5.38;;;2.50;;
80136;SDS011;69466;55.948;37.484;2023-12-20T12:07:30;4.88;;;2.20;;
80136;SDS011;69466;55.948;37.484;2023-12-20T12:12:51;7.15;;;2.95;;
80136;SDS011;69466;55.948;37.484;2023-12-20T12:15:27;4.50;;;2.08;;
80136;SDS011;69466;55.948;37.484;2023-12-20T12:18:59;5.72;;;2.67;;
80136;SDS011;69466;55.948;37.484;2023-12-20T12:25:21;5.15;;;2.20;;
80136;SDS011;69466;55.948;37.484;2023-12-20T12:28:00;6.30;;;2.80;;
80136;SDS011;69466;55.948;37.484;2023-12-20T12:31:00;6.57;;;2.50;;
80136;SDS011;69466;55.948;37.484;2023-12-20T12:33:56;5.22;;;1.80;;
80136;SDS011;69466;55.948;37.484;2023-12-20T12:36:22;6.60;;;2.13;;
80136;SDS011;69466;55.948;37.484;2023-12-20T12:38:51;5.75;;;2.90;;
80136;SDS011;69466;55.948;37.484;2023-12-20T12:41:24;5.45;;;1.83;;
80136;SDS011;69466;55.948;37.484;2023-12-20T12:43:52;4.25;;;1.65;;
80136;SDS011;69466;55.948;37.484;2023-12-20T12:46:18;4.15;;;1.92;;
80136;SDS011;69466;55.948;37.484;2023-12-20T12:48:43;4.22;;;2.08;;
80136;SDS011;69466;55.948;37.484;2023-12-20T12:51:10;5.40;;;2.05;;
80136;SDS011;69466;55.948;37.484;2023-12-20T12:53:39;5.40;;;2.17;;
80136;SDS011;69466;55.948;37.484;2023-12-20T12:56:05;7.60;;;2.95;;
80136;SDS011;69466;55.948;37.484;2023-12-20T12:58:32;5.00;;;1.90;;
80136;SDS011;69466;55.948;37.484;2023-12-20T13:01:07;8.73;;;2.28;;
80136;SDS011;69466;55.948;37.484;2023-12-20T13:04:20;6.90;;;3.10;;
80136;SDS011;69466;55.948;37.484;2023-12-20T13:06:46;6.15;;;2.35;;
80136;SDS011;69466;55.948;37.484;2023-12-20T13:09:13;5.13;;;2.22;;
80136;SDS011;69466;55.948;37.484;2023-12-20T13:11:40;5.45;;;2.40;;
80136;SDS011;69466;55.948;37.484;2023-12-20T13:14:08;4.18;;;2.20;;
80136;SDS011;69466;55.948;37.484;2023-12-20T13:16:39;4.95;;;1.83;;
80136;SDS011;69466;55.948;37.484;2023-12-20T13:19:05;4.80;;;1.90;;
80136;SDS011;69466;55.948;37.484;2023-12-20T13:21:31;4.03;;;1.63;;
80136;SDS011;69466;55.948;37.484;2023-12-20T13:24:07;4.75;;;1.50;;
80136;SDS011;69466;55.948;37.484;2023-12-20T13:26:35;5.40;;;1.90;;
80136;SDS011;69466;55.948;37.484;2023-12-20T13:29:01;4.20;;;1.40;;
80136;SDS011;69466;55.948;37.484;2023-12-20T13:31:28;6.35;;;1.35;;
80136;SDS011;69466;55.948;37.484;2023-12-20T13:33:54;5.53;;;1.73;;
80136;SDS011;69466;55.948;37.484;2023-12-20T13:36:20;3.88;;;1.60;;
80136;SDS011;69466;55.948;37.484;2023-12-20T13:38:46;3.78;;;1.67;;
80136;SDS011;69466;55.948;37.484;2023-12-20T13:41:12;3.78;;;1.42;;
80136;SDS011;69466;55.948;37.484;2023-12-20T13:43:43;2.58;;;1.00;;
80136;SDS011;69466;55.948;37.484;2023-12-20T13:46:11;4.03;;;1.15;;
80136;SDS011;69466;55.948;37.484;2023-12-20T13:48:39;5.18;;;1.52;;
80136;SDS011;69466;55.948;37.484;2023-12-20T13:51:05;3.67;;;1.40;;
80136;SDS011;69466;55.948;37.484;2023-12-20T13:53:31;3.72;;;1.10;;
80136;SDS011;69466;55.948;37.484;2023-12-20T13:55:58;3.80;;;1.33;;
80136;SDS011;69466;55.948;37.484;2023-12-20T13:58:25;5.70;;;1.88;;
80136;SDS011;69466;55.948;37.484;2023-12-20T14:00:54;2.83;;;1.38;;
80136;SDS011;69466;55.948;37.484;2023-12-20T14:03:20;2.97;;;1.30;;
80136;SDS011;69466;55.948;37.484;2023-12-20T14:05:46;3.22;;;1.27;;
80136;SDS011;69466;55.948;37.484;2023-12-20T14:08:12;2.30;;;1.05;;
80136;SDS011;69466;55.948;37.484;2023-12-20T14:11:04;4.93;;;0.95;;
80136;SDS011;69466;55.948;37.484;2023-12-20T14:13:33;3.17;;;1.35;;
80136;SDS011;69466;55.948;37.484;2023-12-20T14:15:59;5.45;;;2.08;;
80136;SDS011;69466;55.948;37.484;2023-12-20T14:18:26;5.65;;;1.40;;
80136;SDS011;69466;55.948;37.484;2023-12-20T14:20:53;3.55;;;1.30;;
80136;SDS011;69466;55.948;37.484;2023-12-20T14:23:19;5.75;;;1.60;;
80136;SDS011;69466;55.948;37.484;2023-12-20T14:25:45;3.95;;;1.90;;
80136;SDS011;69466;55.948;37.484;2023-12-20T14:28:14;4.47;;;1.42;;
80136;SDS011;69466;55.948;37.484;2023-12-20T14:31:32;4.55;;;1.50;;
80136;SDS011;69466;55.948;37.484;2023-12-20T14:34:00;5.05;;;1.67;;
80136;SDS011;69466;55.948;37.484;2023-12-20T14:37:33;4.45;;;1.33;;
80136;SDS011;69466;55.948;37.484;2023-12-20T14:40:14;4.55;;;1.90;;
80136;SDS011;69466;55.948;37.484;2023-12-20T14:46:23;4.38;;;1.70;;
80136;SDS011;69466;55.948;37.484;2023-12-20T14:49:22;4.30;;;1.73;;
80136;SDS011;69466;55.948;37.484;2023-12-20T14:51:48;4.00;;;1.45;;
80136;SDS011;69466;55.948;37.484;2023-12-20T14:54:14;4.38;;;2.00;;
80136;SDS011;69466;55.948;37.484;2023-12-20T14:56:40;4.82;;;1.33;;
80136;SDS011;69466;55.948;37.484;2023-12-20T14:59:07;4.82;;;1.65;;
80136;SDS011;69466;55.948;37.484;2023-12-20T15:01:33;3.85;;;1.52;;
80136;SDS011;69466;55.948;37.484;2023-12-20T15:04:00;5.00;;;1.95;;
80136;SDS011;69466;55.948;37.484;2023-12-20T15:06:26;4.78;;;1.67;;
80136;SDS011;69466;55.948;37.484;2023-12-20T15:08:55;6.03;;;1.60;;
80136;SDS011;69466;55.948;37.484;2023-12-20T15:11:28;3.22;;;1.35;;
80136;SDS011;69466;55.948;37.484;2023-12-20T15:13:54;3.45;;;1.50;;
80136;SDS011;69466;55.948;37.484;2023-12-20T15:16:22;5.75;;;2.05;;
80136;SDS011;69466;55.948;37.484;2023-12-20T15:18:49;4.28;;;1.65;;
80136;SDS011;69466;55.948;37.484;2023-12-20T15:21:16;4.88;;;1.80;;
80136;SDS011;69466;55.948;37.484;2023-12-20T15:23:42;6.00;;;1.90;;
80136;SDS011;69466;55.948;37.484;2023-12-20T15:26:18;4.53;;;1.60;;
80136;SDS011;69466;55.948;37.484;2023-12-20T15:28:45;4.85;;;2.08;;
80136;SDS011;69466;55.948;37.484;2023-12-20T15:31:11;3.22;;;1.60;;
80136;SDS011;69466;55.948;37.484;2023-12-20T15:33:40;5.07;;;2.17;;
80136;SDS011;69466;55.948;37.484;2023-12-20T15:36:06;3.85;;;1.75;;
80136;SDS011;69466;55.948;37.484;2023-12-20T15:38:33;4.97;;;1.88;;